sensor_id;sensor_type;location;lat;lon;timestamp;P1;durP1;ratioP1;P2;durP2;ratioP2
75680;SDS011;64294;49.176;16.626;2023-03-31T17:32:44;3.60;;;1.30;;
75680;SDS011;64294;49.176;16.626;2023-03-31T17:35:10;3.30;;;1.65;;
75680;SDS011;64294;49.176;16.626;2023-03-31T17:37:37;2.08;;;1.40;;
75680;SDS011;64294;49.176;16.626;2023-03-31T17:40:03;3.67;;;1.42;;
75680;SDS011;64294;49.176;16.626;2023-03-31T17:42:29;3.03;;;1.40;;
75680;SDS011;64294;49.176;16.626;2023-03-31T17:44:55;2.08;;;1.45;;
75680;SDS011;64294;49.176;16.626;2023-03-31T17:47:22;3.25;;;1.80;;
75680;SDS011;64294;49.176;16.626;2023-03-31T17:49:48;4.72;;;1.90;;
75680;SDS011;64294;49.176;16.626;2023-03-31T17:52:13;4.80;;;1.77;;
75680;SDS011;64294;49.176;16.626;2023-03-31T17:54:39;3.05;;;1.60;;
75680;SDS011;64294;49.176;16.626;2023-03-31T17:57:04;11.55;;;7.00;;
75680;SDS011;64294;49.176;16.626;2023-03-31T17:59:30;3.72;;;1.80;;
75680;SDS011;64294;49.176;16.626;2023-03-31T18:01:55;3.67;;;1.75;;
75680;SDS011;64294;49.176;16.626;2023-03-31T18:04:21;2.13;;;1.50;;
75680;SDS011;64294;49.176;16.626;2023-03-31T18:06:46;4.07;;;1.67;;
75680;SDS011;64294;49.176;16.626;2023-03-31T18:09:12;4.32;;;1.63;;
75680;SDS011;64294;49.176;16.626;2023-03-31T18:11:39;2.60;;;1.80;;
75680;SDS011;64294;49.176;16.626;2023-03-31T18:14:05;3.97;;;1.90;;
75680;SDS011;64294;49.176;16.626;2023-03-31T18:16:31;5.50;;;2.65;;
75680;SDS011;64294;49.176;16.626;2023-03-31T18:18:57;5.32;;;3.10;;
75680;SDS011;64294;49.176;16.626;2023-03-31T18:21:23;8.10;;;3.10;;
75680;SDS011;64294;49.176;16.626;2023-03-31T18:23:49;4.70;;;2.80;;
75680;SDS011;64294;49.176;16.626;2023-03-31T18:26:16;14.70;;;6.65;;
75680;SDS011;64294;49.176;16.626;2023-03-31T18:28:43;8.18;;;3.60;;
75680;SDS011;64294;49.176;16.626;2023-03-31T18:31:09;6.25;;;3.10;;
75680;SDS011;64294;49.176;16.626;2023-03-31T18:33:35;6.25;;;2.90;;
75680;SDS011;64294;49.176;16.626;2023-03-31T18:36:01;5.32;;;2.78;;
75680;SDS011;64294;49.176;16.626;2023-03-31T18:38:27;6.55;;;2.80;;
75680;SDS011;64294;49.176;16.626;2023-03-31T18:40:53;5.43;;;2.60;;
75680;SDS011;64294;49.176;16.626;2023-03-31T18:43:19;4.25;;;2.30;;
75680;SDS011;64294;49.176;16.626;2023-03-31T18:45:52;4.40;;;2.20;;
75680;SDS011;64294;49.176;16.626;2023-03-31T18:48:19;7.85;;;5.32;;
75680;SDS011;64294;49.176;16.626;2023-03-31T18:50:49;11.85;;;6.57;;
75680;SDS011;64294;49.176;16.626;2023-03-31T18:53:16;6.07;;;3.42;;
75680;SDS011;64294;49.176;16.626;2023-03-31T18:55:43;4.75;;;3.20;;
75680;SDS011;64294;49.176;16.626;2023-03-31T18:58:13;7.97;;;3.30;;
75680;SDS011;64294;49.176;16.626;2023-03-31T19:00:39;6.28;;;3.20;;
75680;SDS011;64294;49.176;16.626;2023-03-31T19:03:04;6.25;;;3.50;;
75680;SDS011;64294;49.176;16.626;2023-03-31T19:05:30;6.03;;;3.85;;
75680;SDS011;64294;49.176;16.626;2023-03-31T19:07:56;6.68;;;3.63;;
75680;SDS011;64294;49.176;16.626;2023-03-31T19:10:21;10.35;;;4.35;;
75680;SDS011;64294;49.176;16.626;2023-03-31T19:12:47;8.13;;;4.07;;
75680;SDS011;64294;49.176;16.626;2023-03-31T19:15:13;8.73;;;4.05;;
75680;SDS011;64294;49.176;16.626;2023-03-31T19:17:38;7.43;;;4.32;;
75680;SDS011;64294;49.176;16.626;2023-03-31T19:20:04;8.52;;;3.80;;
75680;SDS011;64294;49.176;16.626;2023-03-31T19:22:30;6.22;;;4.10;;
75680;SDS011;64294;49.176;16.626;2023-03-31T19:24:56;8.32;;;4.30;;
75680;SDS011;64294;49.176;16.626;2023-03-31T19:27:22;10.98;;;5.50;;
75680;SDS011;64294;49.176;16.626;2023-03-31T19:29:47;9.48;;;5.75;;
75680;SDS011;64294;49.176;16.626;2023-03-31T19:32:13;8.63;;;5.13;;
75680;SDS011;64294;49.176;16.626;2023-03-31T19:34:38;9.05;;;5.30;;
75680;SDS011;64294;49.176;16.626;2023-03-31T19:37:04;8.13;;;5.00;;
75680;SDS011;64294;49.176;16.626;2023-03-31T19:39:30;8.50;;;5.05;;
75680;SDS011;64294;49.176;16.626;2023-03-31T19:41:55;6.75;;;4.50;;
75680;SDS011;64294;49.176;16.626;2023-03-31T19:44:21;7.85;;;4.40;;
75680;SDS011;64294;49.176;16.626;2023-03-31T19:46:46;8.70;;;4.22;;
75680;SDS011;64294;49.176;16.626;2023-03-31T19:49:12;8.07;;;4.60;;
75680;SDS011;64294;49.176;16.626;2023-03-31T19:51:39;9.40;;;5.05;;
75680;SDS011;64294;49.176;16.626;2023-03-31T19:54:04;7.95;;;4.93;;
75680;SDS011;64294;49.176;16.626;2023-03-31T19:56:30;8.57;;;4.95;;
75680;SDS011;64294;49.176;16.626;2023-03-31T19:58:56;7.72;;;5.07;;
75680;SDS011;64294;49.176;16.626;2023-03-31T20:01:23;9.95;;;5.75;;
75680;SDS011;64294;49.176;16.626;2023-03-31T20:03:50;8.55;;;5.65;;
75680;SDS011;64294;49.176;16.626;2023-03-31T20:06:17;8.52;;;5.20;;
75680;SDS011;64294;49.176;16.626;2023-03-31T20:08:45;10.57;;;5.30;;
75680;SDS011;64294;49.176;16.626;2023-03-31T20:11:12;8.10;;;5.22;;
75680;SDS011;64294;49.176;16.626;2023-03-31T20:13:38;13.25;;;5.65;;
75680;SDS011;64294;49.176;16.626;2023-03-31T20:16:09;11.13;;;5.85;;
75680;SDS011;64294;49.176;16.626;2023-03-31T20:18:37;8.98;;;5.13;;
75680;SDS011;64294;49.176;16.626;2023-03-31T20:21:07;10.43;;;6.00;;
75680;SDS011;64294;49.176;16.626;2023-03-31T20:23:35;9.23;;;5.63;;
75680;SDS011;64294;49.176;16.626;2023-03-31T20:26:05;9.73;;;5.50;;
75680;SDS011;64294;49.176;16.626;2023-03-31T20:28:33;11.23;;;6.10;;
75680;SDS011;64294;49.176;16.626;2023-03-31T20:31:11;8.73;;;5.90;;
75680;SDS011;64294;49.176;16.626;2023-03-31T20:33:41;43.80;;;24.48;;
75680;SDS011;64294;49.176;16.626;2023-03-31T20:36:08;11.68;;;6.90;;
75680;SDS011;64294;49.176;16.626;2023-03-31T20:38:35;10.93;;;5.90;;
75680;SDS011;64294;49.176;16.626;2023-03-31T20:41:01;12.65;;;6.60;;
75680;SDS011;64294;49.176;16.626;2023-03-31T20:43:27;11.93;;;6.38;;
75680;SDS011;64294;49.176;16.626;2023-03-31T20:45:56;11.63;;;6.60;;
75680;SDS011;64294;49.176;16.626;2023-03-31T20:50:57;12.10;;;6.57;;
75680;SDS011;64294;49.176;16.626;2023-03-31T20:53:23;12.85;;;8.15;;
75680;SDS011;64294;49.176;16.626;2023-03-31T20:55:49;16.95;;;8.90;;
75680;SDS011;64294;49.176;16.626;2023-03-31T20:58:15;18.05;;;9.07;;
75680;SDS011;64294;49.176;16.626;2023-03-31T21:00:41;11.75;;;8.10;;
75680;SDS011;64294;49.176;16.626;2023-03-31T21:03:06;12.38;;;8.25;;
75680;SDS011;64294;49.176;16.626;2023-03-31T21:05:31;15.43;;;9.23;;
75680;SDS011;64294;49.176;16.626;2023-03-31T21:08:05;14.40;;;8.60;;
75680;SDS011;64294;49.176;16.626;2023-03-31T21:10:31;12.45;;;8.48;;
75680;SDS011;64294;49.176;16.626;2023-03-31T21:12:56;15.60;;;8.90;;
75680;SDS011;64294;49.176;16.626;2023-03-31T21:15:21;14.00;;;8.02;;
75680;SDS011;64294;49.176;16.626;2023-03-31T21:17:47;13.68;;;8.05;;
75680;SDS011;64294;49.176;16.626;2023-03-31T21:20:12;15.18;;;8.80;;
75680;SDS011;64294;49.176;16.626;2023-03-31T21:22:41;15.35;;;8.23;;
75680;SDS011;64294;49.176;16.626;2023-03-31T21:25:06;13.07;;;8.00;;
75680;SDS011;64294;49.176;16.626;2023-03-31T21:27:32;15.77;;;8.38;;
75680;SDS011;64294;49.176;16.626;2023-03-31T21:29:58;12.88;;;8.20;;
75680;SDS011;64294;49.176;16.626;2023-03-31T21:32:23;12.20;;;8.18;;
75680;SDS011;64294;49.176;16.626;2023-03-31T21:34:52;12.05;;;7.82;;
75680;SDS011;64294;49.176;16.626;2023-03-31T21:37:18;12.88;;;7.88;;
75680;SDS011;64294;49.176;16.626;2023-03-31T21:39:43;13.27;;;7.32;;
75680;SDS011;64294;49.176;16.626;2023-03-31T21:42:09;11.85;;;7.40;;
75680;SDS011;64294;49.176;16.626;2023-03-31T21:44:35;17.13;;;7.90;;
75680;SDS011;64294;49.176;16.626;2023-03-31T21:47:00;11.55;;;7.72;;
75680;SDS011;64294;49.176;16.626;2023-03-31T21:49:26;13.73;;;7.22;;
75680;SDS011;64294;49.176;16.626;2023-03-31T21:51:52;13.48;;;7.72;;
75680;SDS011;64294;49.176;16.626;2023-03-31T21:54:19;12.77;;;6.80;;
75680;SDS011;64294;49.176;16.626;2023-03-31T21:56:44;17.02;;;8.85;;
75680;SDS011;64294;49.176;16.626;2023-03-31T21:59:09;17.80;;;7.85;;
75680;SDS011;64294;49.176;16.626;2023-03-31T22:01:35;14.43;;;7.45;;
75680;SDS011;64294;49.176;16.626;2023-03-31T22:04:01;12.80;;;8.07;;
75680;SDS011;64294;49.176;16.626;2023-03-31T22:06:26;12.88;;;7.95;;
75680;SDS011;64294;49.176;16.626;2023-03-31T22:08:52;10.65;;;7.50;;
75680;SDS011;64294;49.176;16.626;2023-03-31T22:11:17;14.35;;;8.25;;
75680;SDS011;64294;49.176;16.626;2023-03-31T22:13:43;13.70;;;7.60;;
75680;SDS011;64294;49.176;16.626;2023-03-31T22:16:13;14.00;;;8.07;;
75680;SDS011;64294;49.176;16.626;2023-03-31T22:18:44;21.85;;;11.38;;
75680;SDS011;64294;49.176;16.626;2023-03-31T22:21:23;12.65;;;7.85;;
75680;SDS011;64294;49.176;16.626;2023-03-31T22:23:50;12.40;;;7.50;;
75680;SDS011;64294;49.176;16.626;2023-03-31T22:26:22;12.88;;;7.10;;
75680;SDS011;64294;49.176;16.626;2023-03-31T22:28:49;17.65;;;7.28;;
75680;SDS011;64294;49.176;16.626;2023-03-31T22:31:15;14.45;;;6.75;;
75680;SDS011;64294;49.176;16.626;2023-03-31T22:33:41;11.63;;;7.53;;
75680;SDS011;64294;49.176;16.626;2023-03-31T22:36:06;12.20;;;6.95;;
75680;SDS011;64294;49.176;16.626;2023-03-31T22:38:32;11.93;;;6.93;;
75680;SDS011;64294;49.176;16.626;2023-03-31T22:40:57;12.88;;;7.22;;
75680;SDS011;64294;49.176;16.626;2023-03-31T22:43:23;13.80;;;8.02;;
75680;SDS011;64294;49.176;16.626;2023-03-31T22:45:49;12.32;;;7.05;;
75680;SDS011;64294;49.176;16.626;2023-03-31T22:48:14;14.43;;;7.13;;
75680;SDS011;64294;49.176;16.626;2023-03-31T22:50:40;12.60;;;8.05;;
75680;SDS011;64294;49.176;16.626;2023-03-31T22:53:07;14.48;;;8.15;;
75680;SDS011;64294;49.176;16.626;2023-03-31T22:55:34;16.92;;;10.18;;
75680;SDS011;64294;49.176;16.626;2023-03-31T22:58:00;16.88;;;9.95;;
75680;SDS011;64294;49.176;16.626;2023-03-31T23:00:25;18.13;;;10.25;;
75680;SDS011;64294;49.176;16.626;2023-03-31T23:02:51;15.02;;;9.63;;
75680;SDS011;64294;49.176;16.626;2023-03-31T23:05:17;19.50;;;11.80;;
75680;SDS011;64294;49.176;16.626;2023-03-31T23:07:42;17.63;;;11.57;;
75680;SDS011;64294;49.176;16.626;2023-03-31T23:10:08;17.83;;;11.98;;
75680;SDS011;64294;49.176;16.626;2023-03-31T23:12:34;20.30;;;12.23;;
75680;SDS011;64294;49.176;16.626;2023-03-31T23:15:00;17.50;;;11.60;;
75680;SDS011;64294;49.176;16.626;2023-03-31T23:17:26;20.75;;;11.95;;
75680;SDS011;64294;49.176;16.626;2023-03-31T23:19:52;18.35;;;11.55;;
75680;SDS011;64294;49.176;16.626;2023-03-31T23:22:17;16.35;;;10.85;;
75680;SDS011;64294;49.176;16.626;2023-03-31T23:24:43;19.95;;;10.73;;
75680;SDS011;64294;49.176;16.626;2023-03-31T23:27:08;17.48;;;10.68;;
75680;SDS011;64294;49.176;16.626;2023-03-31T23:29:34;19.15;;;11.15;;
75680;SDS011;64294;49.176;16.626;2023-03-31T23:32:00;19.30;;;11.10;;
75680;SDS011;64294;49.176;16.626;2023-03-31T23:34:26;16.95;;;10.65;;
75680;SDS011;64294;49.176;16.626;2023-03-31T23:36:51;21.25;;;11.52;;
75680;SDS011;64294;49.176;16.626;2023-03-31T23:39:17;16.42;;;10.43;;
75680;SDS011;64294;49.176;16.626;2023-03-31T23:41:42;16.23;;;10.10;;
75680;SDS011;64294;49.176;16.626;2023-03-31T23:44:08;17.00;;;10.35;;
75680;SDS011;64294;49.176;16.626;2023-03-31T23:46:33;19.63;;;10.48;;
75680;SDS011;64294;49.176;16.626;2023-03-31T23:49:00;18.52;;;11.43;;
75680;SDS011;64294;49.176;16.626;2023-03-31T23:51:26;17.05;;;10.75;;
75680;SDS011;64294;49.176;16.626;2023-03-31T23:53:52;19.63;;;11.27;;
75680;SDS011;64294;49.176;16.626;2023-03-31T23:56:17;17.58;;;11.23;;
75680;SDS011;64294;49.176;16.626;2023-03-31T23:58:46;15.68;;;10.80;;
